Flight Track Log - Related Links

Times and Time Zones

All times are in EDT time to prevent confusion due to time zone crossing. See the PVL1901 flight status page for this flight to view local times or setup timezone preferences in your user account.

Time Position Orientation Groundspeed Altitude Reporting Facility
EDT Latitude Longitude Course Direction KTS MPH feet Rate Location/Type
Wed 01:40:31 PM 46.7333 -71.4667 226° Southwest 160 184 2,300  Level Montreal Center
Wed 01:41:31 PM 46.7000 -71.5167 226° Southwest 180 207 3,500 1,100 Climbing Montreal Center
Wed 01:42:31 PM 46.6667 -71.5667 226° Southwest 190 219 4,500 950 Climbing Montreal Center
Wed 01:43:31 PM 46.6333 -71.6167 226° Southwest 190 219 5,400 850 Climbing Montreal Center
Wed 01:44:00 PM 46.5793 -71.7828 232° Southwest  Level Estimated
Wed 01:44:31 PM 46.5833 -71.6667 215° Southwest 200 230 6,200  Level Montreal Center
Wed 01:45:31 PM 46.5500 -71.7167 226° Southwest 210 242 6,900 650 Climbing Montreal Center
Wed 01:46:31 PM 46.5000 -71.7667 215° Southwest 210 242 7,500 550 Climbing Montreal Center
Wed 01:47:31 PM 46.4500 -71.8333 223° Southwest 220 253 8,000 500 Climbing Montreal Center
Wed 01:48:31 PM 46.4000 -71.8833 215° Southwest 220 253 8,500 650 Climbing Montreal Center
Wed 01:49:31 PM 46.3500 -71.9500 223° Southwest 220 253 9,300 750 Climbing Montreal Center
Wed 01:50:31 PM 46.3167 -72.0000 226° Southwest 220 253 10,000 750 Climbing Montreal Center
Wed 01:51:31 PM 46.2833 -72.0667 234° Southwest 220 253 10,800 750 Climbing Montreal Center
Wed 01:52:31 PM 46.2333 -72.1333 223° Southwest 210 242 11,500 550 Climbing Montreal Center
Wed 01:53:31 PM 46.1833 -72.1833 215° Southwest 210 242 11,900 300 Climbing Montreal Center
Wed 01:54:31 PM 46.1333 -72.2333 215° Southwest 210 242 12,100 100 Climbing Montreal Center
Wed 01:55:31 PM 46.1000 -72.2833 226° Southwest 210 242 12,100 50 Level Montreal Center
Wed 01:56:31 PM 46.0500 -72.3500 223° Southwest 210 242 12,200 50 Climbing Montreal Center
Wed 01:57:31 PM 46.0000 -72.4167 223° Southwest 220 253 12,200 -50 Level Montreal Center
Wed 01:58:31 PM 45.9500 -72.4667 215° Southwest 220 253 12,100 -50 Descending Montreal Center
Wed 01:59:31 PM 45.9000 -72.5167 215° Southwest 210 242 12,100  Level Montreal Center
Wed 02:00:31 PM 45.8667 -72.6000 240° Southwest 230 265 12,100  Level Montreal Center
Wed 02:01:31 PM 45.8333 -72.6667 234° Southwest 240 276 12,100 -50 Level Montreal Center
Wed 02:02:31 PM 45.8000 -72.7500 240° Southwest 240 276 12,000 -250 Descending Montreal Center
Wed 02:03:31 PM 45.7667 -72.8500 244° Southwest 250 288 11,600 -450 Descending Montreal Center
Wed 02:04:31 PM 45.7167 -72.9167 223° Southwest 260 299 11,100 -650 Descending Montreal Center
Wed 02:05:31 PM 45.7000 -73.0167 257° West 250 288 10,300 -900 Descending Montreal Center
Wed 02:06:31 PM 45.7000 -73.1333 270° West 250 288 9,300 -1,150 Descending Montreal Center
Wed 02:07:31 PM 45.6667 -73.2167 240° Southwest 260 299 8,000 -1,400 Descending Montreal Center
Wed 02:08:31 PM 45.6667 -73.3333 270° West 230 265 6,500 -1,250 Descending Montreal Center
Wed 02:09:31 PM 45.6500 -73.4000 250° West 200 230 5,500 -950 Descending Montreal Center
Wed 02:10:31 PM 45.6500 -73.4667 270° West 200 230 4,600 -850 Descending Montreal Center
Wed 02:11:31 PM 45.6167 -73.5500 240° Southwest 190 219 3,800 -800 Descending Montreal Center
Wed 02:12:31 PM 45.5833 -73.6000 226° Southwest 200 230 3,000 -1,000 Descending Montreal Center
Wed 02:13:31 PM 45.5333 -73.6500 215° Southwest 170 196 1,800 -950 Descending Montreal Center
Wed 02:14:31 PM 45.5000 -73.6667 199° South 140 161 1,100 -700 Descending Montreal Center
Wed 02:15:31 PM 45.4833 -73.7167 245° Southwest 130 150 400 -450 Descending Montreal Center
Wed 02:16:31 PM 45.4667 -73.7500 235° Southwest 60 69 200 -200 Descending Montreal Center

Login

Don't have an account? Register now (free) for customized features, flight alerts, and more!